createdAt,value
2023-04-19T00:01:36.282Z,13.02
2023-04-19T00:04:03.439Z,14.00
2023-04-19T00:06:30.444Z,15.82
2023-04-19T00:08:57.395Z,13.38
2023-04-19T00:11:24.379Z,14.43
2023-04-19T00:16:16.890Z,14.85
2023-04-19T00:18:43.192Z,13.40
2023-04-19T00:21:09.422Z,16.55
2023-04-19T00:23:35.692Z,16.73
2023-04-19T00:26:05.066Z,15.73
2023-04-19T00:28:31.321Z,15.18
2023-04-19T00:30:57.788Z,16.08
2023-04-19T00:33:24.085Z,17.10
2023-04-19T00:35:50.322Z,15.82
2023-04-19T00:38:16.553Z,15.80
2023-04-19T00:40:42.824Z,13.60
2023-04-19T00:43:09.131Z,13.80
2023-04-19T00:45:36.789Z,15.73
2023-04-19T00:48:03.143Z,17.35
2023-04-19T00:50:29.734Z,15.38
2023-04-19T00:52:56.487Z,12.85
2023-04-19T00:55:23.394Z,15.48
2023-04-19T01:00:18.196Z,16.13
2023-04-19T01:02:44.600Z,13.90
2023-04-19T01:05:10.937Z,14.65
2023-04-19T01:07:37.370Z,17.40
2023-04-19T01:10:03.713Z,14.48
2023-04-19T01:12:29.958Z,15.80
2023-04-19T01:14:56.161Z,13.63
2023-04-19T01:17:22.831Z,16.08
2023-04-19T01:19:49.083Z,16.38
2023-04-19T01:22:16.863Z,17.08
2023-04-19T01:24:43.070Z,16.30
2023-04-19T01:27:09.268Z,13.05
2023-04-19T01:29:35.646Z,14.95
2023-04-19T01:32:01.886Z,16.05
2023-04-19T01:34:28.240Z,13.30
2023-04-19T01:36:54.538Z,13.68
2023-04-19T01:39:21.136Z,19.80
2023-04-19T01:41:47.335Z,13.82
2023-04-19T01:44:13.836Z,13.07
2023-04-19T01:46:42.583Z,15.80
2023-04-19T01:49:09.302Z,16.17
2023-04-19T01:51:35.515Z,16.27
2023-04-19T01:54:02.546Z,17.30
2023-04-19T01:56:28.813Z,14.95
2023-04-19T01:58:55.074Z,17.02
2023-04-19T02:01:21.404Z,16.98
2023-04-19T02:03:47.966Z,12.98
2023-04-19T02:06:14.336Z,15.05
2023-04-19T02:08:41.560Z,16.75
2023-04-19T02:11:08.676Z,15.90
2023-04-19T02:13:35.223Z,14.32
2023-04-19T02:16:02.439Z,12.85
2023-04-19T02:18:31.901Z,14.55
2023-04-19T02:21:01.418Z,13.55
2023-04-19T02:23:27.638Z,15.02
2023-04-19T02:25:53.845Z,14.00
2023-04-19T02:28:20.159Z,14.25
2023-04-19T02:30:46.655Z,14.38
2023-04-19T02:33:12.898Z,14.65
2023-04-19T02:35:39.177Z,17.45
2023-04-19T02:38:05.419Z,15.65
2023-04-19T02:40:31.674Z,13.65
2023-04-19T02:42:57.914Z,13.55
2023-04-19T02:45:24.139Z,17.98
2023-04-19T02:47:50.552Z,14.25
2023-04-19T02:50:17.092Z,15.07
2023-04-19T02:52:43.353Z,13.93
2023-04-19T02:55:09.753Z,13.57
2023-04-19T02:57:36.044Z,14.18
2023-04-19T03:00:02.406Z,20.27
2023-04-19T03:02:28.778Z,15.95
2023-04-19T03:04:55.391Z,14.65
2023-04-19T03:07:21.664Z,13.77
2023-04-19T03:09:47.927Z,14.07
2023-04-19T03:12:14.154Z,13.80
2023-04-19T03:14:40.390Z,12.25
2023-04-19T03:17:06.625Z,13.18
2023-04-19T03:19:32.848Z,13.52
2023-04-19T03:21:59.147Z,12.45
2023-04-19T03:24:31.866Z,11.80
2023-04-19T03:26:58.173Z,17.25
2023-04-19T03:29:24.535Z,14.07
2023-04-19T03:31:50.764Z,15.30
2023-04-19T03:34:17.267Z,12.45
2023-04-19T03:36:43.807Z,15.05
2023-04-19T03:39:10.282Z,12.82
2023-04-19T03:41:36.495Z,15.15
2023-04-19T03:44:03.061Z,12.30
2023-04-19T03:46:32.323Z,12.15
2023-04-19T03:48:58.757Z,12.65
2023-04-19T03:51:25.010Z,12.98
2023-04-19T03:53:51.236Z,16.17
2023-04-19T03:56:17.449Z,13.38
2023-04-19T03:58:43.680Z,14.45
2023-04-19T04:01:17.392Z,13.85
2023-04-19T04:03:43.758Z,15.55
2023-04-19T04:06:10.080Z,14.18
2023-04-19T04:08:36.328Z,14.75
2023-04-19T04:11:02.540Z,16.45
2023-04-19T04:13:28.769Z,11.60
2023-04-19T04:15:55.083Z,13.35
2023-04-19T04:18:21.353Z,14.98
2023-04-19T04:20:47.714Z,13.52
2023-04-19T04:23:14.369Z,11.35
2023-04-19T04:25:40.585Z,12.70
2023-04-19T04:28:06.830Z,11.85
2023-04-19T04:30:33.810Z,13.18
2023-04-19T04:35:29.795Z,24.33
2023-04-19T04:37:56.509Z,14.75
2023-04-19T04:40:22.913Z,14.68
2023-04-19T04:42:49.441Z,18.13
2023-04-19T04:45:18.347Z,18.35
2023-04-19T04:47:46.299Z,13.80
2023-04-19T04:50:12.598Z,12.85
2023-04-19T04:52:38.857Z,14.60
2023-04-19T04:55:06.090Z,16.70
2023-04-19T04:57:32.297Z,15.02
2023-04-19T04:59:58.532Z,21.63
2023-04-19T05:02:25.539Z,14.90
2023-04-19T05:04:52.012Z,13.70
2023-04-19T05:07:18.393Z,12.93
2023-04-19T05:09:44.820Z,13.85
2023-04-19T05:12:11.018Z,16.48
2023-04-19T05:14:37.274Z,14.93
2023-04-19T05:17:05.776Z,15.77
2023-04-19T05:19:33.259Z,15.00
2023-04-19T05:21:59.521Z,15.73
2023-04-19T05:24:25.769Z,13.30
2023-04-19T05:26:51.973Z,11.38
2023-04-19T05:29:18.221Z,11.95
2023-04-19T05:31:44.619Z,9.55
2023-04-19T05:34:11.019Z,13.23
2023-04-19T05:36:37.232Z,13.10
2023-04-19T05:39:03.530Z,12.57
2023-04-19T05:41:29.786Z,13.90
2023-04-19T05:43:56.212Z,10.90
2023-04-19T05:46:22.534Z,13.63
2023-04-19T05:48:48.923Z,11.82
2023-04-19T05:51:17.339Z,13.32
2023-04-19T05:53:43.534Z,12.63
2023-04-19T05:56:09.790Z,12.68
2023-04-19T05:58:36.645Z,12.75
2023-04-19T06:01:04.363Z,12.90
2023-04-19T06:03:32.279Z,13.02
2023-04-19T06:05:59.038Z,12.93
2023-04-19T06:08:25.608Z,17.20
2023-04-19T06:10:55.681Z,13.30
2023-04-19T06:13:24.602Z,13.68
2023-04-19T06:15:51.165Z,15.20
2023-04-19T06:18:19.344Z,17.20
2023-04-19T06:20:46.681Z,19.63
2023-04-19T06:23:14.608Z,13.55
2023-04-19T06:25:41.148Z,18.63
2023-04-19T06:28:07.435Z,12.80
2023-04-19T06:30:33.920Z,13.20
2023-04-19T06:33:00.182Z,13.90
2023-04-19T06:35:26.433Z,22.75
2023-04-19T06:37:52.650Z,16.45
2023-04-19T06:40:19.002Z,15.52
2023-04-19T06:42:45.362Z,14.88
2023-04-19T06:45:11.870Z,15.57
2023-04-19T06:47:38.138Z,15.52
2023-04-19T06:50:04.938Z,14.10
2023-04-19T06:52:31.166Z,14.77
2023-04-19T06:54:57.400Z,13.40
2023-04-19T06:57:23.652Z,17.85
2023-04-19T06:59:50.068Z,15.52
2023-04-19T07:02:16.430Z,14.35
2023-04-19T07:04:42.847Z,18.83
2023-04-19T07:07:09.295Z,15.05
2023-04-19T07:09:35.554Z,18.77
2023-04-19T07:12:02.036Z,14.00
2023-04-19T07:14:28.260Z,13.18
2023-04-19T07:16:54.847Z,13.93
2023-04-19T07:19:22.424Z,12.13
2023-04-19T07:21:48.733Z,19.05
2023-04-19T07:24:15.166Z,17.48
2023-04-19T07:26:41.760Z,12.63
2023-04-19T07:29:08.580Z,15.45
2023-04-19T07:34:01.191Z,12.25
2023-04-19T07:36:27.705Z,11.95
2023-04-19T07:38:53.975Z,11.25
2023-04-19T07:41:20.270Z,15.13
2023-04-19T07:43:46.541Z,10.63
2023-04-19T07:46:15.936Z,12.48
2023-04-19T07:48:42.340Z,12.00
2023-04-19T07:51:12.586Z,15.15
2023-04-19T07:53:39.446Z,24.25
2023-04-19T07:56:09.101Z,10.60
2023-04-19T07:58:36.497Z,10.43
2023-04-19T08:01:03.906Z,15.75
2023-04-19T08:03:30.901Z,13.52
2023-04-19T08:05:57.403Z,13.23
2023-04-19T08:08:24.988Z,9.20
2023-04-19T08:10:54.620Z,12.68
2023-04-19T08:13:21.181Z,10.57
2023-04-19T08:18:16.610Z,15.52
2023-04-19T08:20:42.893Z,11.75
2023-04-19T08:23:20.481Z,11.30
2023-04-19T08:25:50.938Z,13.07
2023-04-19T08:28:18.188Z,11.57
2023-04-19T08:30:44.555Z,9.77
2023-04-19T08:33:10.943Z,12.80
2023-04-19T08:35:38.015Z,12.85
2023-04-19T08:38:04.855Z,18.70
2023-04-19T08:40:31.590Z,12.13
2023-04-19T08:42:57.843Z,10.93
2023-04-19T08:45:28.370Z,14.00
2023-04-19T08:48:01.417Z,11.90
2023-04-19T08:50:34.557Z,11.23
2023-04-19T08:53:23.802Z,14.35
2023-04-19T08:56:08.667Z,13.95
2023-04-19T08:58:54.971Z,9.85
2023-04-19T09:01:33.587Z,12.18
2023-04-19T09:06:43.169Z,11.43
2023-04-19T09:09:34.104Z,15.43
2023-04-19T09:12:15.581Z,15.98
2023-04-19T09:14:53.865Z,12.67
2023-04-19T09:17:27.296Z,17.20
2023-04-19T09:19:53.551Z,13.93
2023-04-19T09:22:19.889Z,18.88
2023-04-19T09:27:18.966Z,13.40
2023-04-19T09:29:52.739Z,17.10
2023-04-19T09:32:19.121Z,16.33
2023-04-19T09:34:53.334Z,14.18
2023-04-19T09:37:35.014Z,13.55
2023-04-19T09:40:24.548Z,13.02
2023-04-19T09:48:05.904Z,11.60
2023-04-19T09:50:33.978Z,9.38
2023-04-19T09:53:05.203Z,9.88
2023-04-19T09:55:39.204Z,8.20
2023-04-19T09:58:18.841Z,9.55
2023-04-19T10:00:49.894Z,8.55
2023-04-19T10:03:16.988Z,14.00
2023-04-19T10:08:11.017Z,9.32
2023-04-19T10:10:41.930Z,11.52
2023-04-19T10:13:20.250Z,8.55
2023-04-19T10:15:52.716Z,8.50
2023-04-19T10:18:23.597Z,8.43
2023-04-19T10:20:53.153Z,7.43
2023-04-19T10:23:20.347Z,8.75
2023-04-19T10:25:47.638Z,7.50
2023-04-19T10:28:15.674Z,7.85
2023-04-19T10:31:11.389Z,7.85
2023-04-19T10:33:37.801Z,7.95
2023-04-19T10:36:04.391Z,7.65
2023-04-19T10:38:46.996Z,14.68
2023-04-19T10:41:17.925Z,10.40
2023-04-19T10:44:08.036Z,11.48
2023-04-19T10:46:35.992Z,10.02
2023-04-19T10:49:05.885Z,10.68
2023-04-19T10:51:38.726Z,11.73
2023-04-19T10:54:06.309Z,10.93
2023-04-19T10:56:32.534Z,17.13
2023-04-19T10:59:01.773Z,11.60
2023-04-19T11:01:44.468Z,10.45
2023-04-19T11:04:23.212Z,18.50
2023-04-19T11:06:52.722Z,17.60
2023-04-19T11:09:42.951Z,14.77
2023-04-19T11:12:11.112Z,19.23
2023-04-19T11:14:39.558Z,18.73
2023-04-19T11:17:15.861Z,16.80
2023-04-19T11:19:54.692Z,15.45
2023-04-19T11:22:31.801Z,15.43
2023-04-19T11:25:04.674Z,14.40
2023-04-19T11:27:30.951Z,13.52
2023-04-19T11:30:02.153Z,13.88
2023-04-19T11:32:28.426Z,16.30
2023-04-19T11:34:56.166Z,16.63
2023-04-19T11:37:22.647Z,15.73
2023-04-19T11:39:48.885Z,17.23
2023-04-19T11:42:21.296Z,15.32
2023-04-19T11:44:51.754Z,11.88
2023-04-19T11:47:18.820Z,10.27
2023-04-19T11:49:45.082Z,17.48
2023-04-19T11:52:11.399Z,13.93
2023-04-19T11:54:37.662Z,18.27
2023-04-19T11:57:05.090Z,36.88
2023-04-19T11:59:32.359Z,12.80
2023-04-19T12:02:05.632Z,15.43
2023-04-19T12:04:32.265Z,14.40
2023-04-19T12:06:59.859Z,15.20
2023-04-19T12:09:26.115Z,13.32
2023-04-19T12:11:52.825Z,17.00
2023-04-19T12:14:21.422Z,15.20
2023-04-19T12:17:08.105Z,14.30
2023-04-19T12:19:36.165Z,12.30
2023-04-19T12:22:09.197Z,13.60
2023-04-19T12:24:35.501Z,13.18
2023-04-19T12:27:03.206Z,14.50
2023-04-19T12:29:30.221Z,13.98
2023-04-19T12:31:56.530Z,11.80
2023-04-19T12:34:22.868Z,12.50
2023-04-19T12:36:49.087Z,11.48
2023-04-19T12:39:15.602Z,11.82
2023-04-19T12:41:42.299Z,15.93
2023-04-19T12:44:08.775Z,13.27
2023-04-19T12:46:35.275Z,14.75
2023-04-19T12:49:01.708Z,11.25
2023-04-19T12:51:27.955Z,13.43
2023-04-19T12:53:54.238Z,12.13
2023-04-19T12:56:21.211Z,11.25
2023-04-19T13:01:13.678Z,8.93
2023-04-19T13:03:40.176Z,10.90
2023-04-19T13:06:06.549Z,12.82
2023-04-19T13:08:43.425Z,13.35
2023-04-19T13:11:12.299Z,8.07
2023-04-19T13:16:06.113Z,10.38
2023-04-19T13:18:32.395Z,9.23
2023-04-19T13:20:58.614Z,8.75
2023-04-19T13:23:24.852Z,9.45
2023-04-19T13:25:51.078Z,14.00
2023-04-19T13:28:17.305Z,13.30
2023-04-19T13:30:43.551Z,10.80
2023-04-19T13:33:09.818Z,15.70
2023-04-19T13:35:36.050Z,14.63
2023-04-19T13:38:02.322Z,15.18
2023-04-19T13:40:28.560Z,14.07
2023-04-19T13:42:56.685Z,9.10
2023-04-19T13:45:23.245Z,9.63
2023-04-19T13:47:49.671Z,11.02
2023-04-19T13:50:16.038Z,9.98
2023-04-19T13:52:42.335Z,11.82
2023-04-19T13:55:08.835Z,13.85
2023-04-19T13:57:35.421Z,7.38
2023-04-19T14:00:01.668Z,9.55
2023-04-19T14:02:28.198Z,7.43
2023-04-19T14:04:54.467Z,8.57
2023-04-19T14:07:20.672Z,7.45
2023-04-19T14:09:47.100Z,7.88
2023-04-19T14:12:13.309Z,6.38
2023-04-19T14:14:39.548Z,9.63
2023-04-19T14:17:05.759Z,5.90
2023-04-19T14:19:32.008Z,11.48
2023-04-19T14:21:58.246Z,6.57
2023-04-19T14:24:24.499Z,7.63
2023-04-19T14:27:06.909Z,9.15
2023-04-19T14:29:35.720Z,8.07
2023-04-19T14:32:13.366Z,9.15
2023-04-19T14:34:48.168Z,5.15
2023-04-19T14:37:14.498Z,10.77
2023-04-19T14:39:40.757Z,10.35
2023-04-19T14:42:06.991Z,12.50
2023-04-19T14:44:33.211Z,10.60
2023-04-19T14:46:59.449Z,8.85
2023-04-19T14:49:25.673Z,11.02
2023-04-19T14:51:52.104Z,10.38
2023-04-19T14:54:18.340Z,12.73
2023-04-19T14:56:44.658Z,11.07
2023-04-19T14:59:11.129Z,16.70
2023-04-19T15:01:37.460Z,17.08
2023-04-19T15:04:04.215Z,13.23
2023-04-19T15:08:57.900Z,13.77
2023-04-19T15:11:24.215Z,12.68
2023-04-19T15:13:50.529Z,15.52
2023-04-19T15:16:16.779Z,14.82
2023-04-19T15:18:43.093Z,14.02
2023-04-19T15:21:09.320Z,16.38
2023-04-19T15:23:35.545Z,13.80
2023-04-19T15:26:01.763Z,13.70
2023-04-19T15:28:28.025Z,13.10
2023-04-19T15:30:59.062Z,17.23
2023-04-19T15:33:25.922Z,13.77
2023-04-19T15:35:52.766Z,15.63
2023-04-19T15:40:45.432Z,16.80
2023-04-19T15:43:11.779Z,26.67
2023-04-19T15:45:38.009Z,15.63
2023-04-19T15:48:04.313Z,17.55
2023-04-19T15:50:30.661Z,11.43
2023-04-19T15:52:57.124Z,9.07
2023-04-19T15:55:23.357Z,10.02
2023-04-19T15:57:50.019Z,6.55
2023-04-19T16:00:16.724Z,6.47
2023-04-19T16:02:43.347Z,7.68
2023-04-19T16:05:09.666Z,5.38
2023-04-19T16:07:36.021Z,3.78
2023-04-19T16:10:03.436Z,4.07
2023-04-19T16:12:29.676Z,6.82
2023-04-19T16:14:56.243Z,8.18
2023-04-19T16:17:22.476Z,5.65
2023-04-19T16:19:48.764Z,4.95
2023-04-19T16:22:15.053Z,5.05
2023-04-19T16:24:41.355Z,3.38
2023-04-19T16:27:07.578Z,5.22
2023-04-19T16:29:34.651Z,8.02
2023-04-19T16:32:01.032Z,4.63
2023-04-19T16:34:27.615Z,2.33
2023-04-19T16:36:53.846Z,3.33
2023-04-19T16:39:20.280Z,2.88
2023-04-19T16:41:46.539Z,2.95
2023-04-19T16:44:12.820Z,4.55
2023-04-19T16:46:39.108Z,3.50
2023-04-19T16:49:05.377Z,2.75
2023-04-19T16:51:31.750Z,3.88
2023-04-19T16:53:58.081Z,6.28
2023-04-19T16:56:24.400Z,7.03
2023-04-19T16:58:51.549Z,4.07
2023-04-19T17:01:17.937Z,3.00
2023-04-19T17:03:44.777Z,3.78
2023-04-19T17:06:11.223Z,4.35
2023-04-19T17:08:38.325Z,6.90
2023-04-19T17:11:04.597Z,3.65
2023-04-19T17:13:30.834Z,5.20
2023-04-19T17:15:57.084Z,6.05
2023-04-19T17:18:23.343Z,18.75
2023-04-19T17:20:49.741Z,7.65
2023-04-19T17:23:16.014Z,8.25
2023-04-19T17:25:42.247Z,8.20
2023-04-19T17:28:08.471Z,9.88
2023-04-19T17:30:34.803Z,5.32
2023-04-19T17:33:01.125Z,6.10
2023-04-19T17:35:27.500Z,4.43
2023-04-19T17:37:53.737Z,6.05
2023-04-19T17:40:21.229Z,7.22
2023-04-19T17:42:47.472Z,10.40
2023-04-19T17:45:13.774Z,5.70
2023-04-19T17:47:40.354Z,9.18
2023-04-19T17:50:07.865Z,10.10
2023-04-19T17:52:34.429Z,5.88
2023-04-19T17:55:02.197Z,5.25
2023-04-19T17:57:29.727Z,7.38
2023-04-19T17:59:55.958Z,3.50
2023-04-19T18:02:22.538Z,8.85
2023-04-19T18:04:48.988Z,5.13
2023-04-19T18:07:15.429Z,2.95
2023-04-19T18:09:41.910Z,7.82
2023-04-19T18:12:08.164Z,7.28
2023-04-19T18:14:35.242Z,6.55
2023-04-19T18:17:02.244Z,8.73
2023-04-19T18:21:54.724Z,3.78
2023-04-19T18:24:21.124Z,5.63
2023-04-19T18:26:47.351Z,7.93
2023-04-19T18:29:15.728Z,3.08
2023-04-19T18:31:42.561Z,3.72
2023-04-19T18:34:09.950Z,4.72
2023-04-19T18:36:38.185Z,4.68
2023-04-19T18:39:04.421Z,4.63
2023-04-19T18:41:30.768Z,4.07
2023-04-19T18:46:26.185Z,4.05
2023-04-19T18:48:52.447Z,4.35
2023-04-19T18:51:18.714Z,3.10
2023-04-19T18:53:45.492Z,7.68
2023-04-19T18:56:11.974Z,6.53
2023-04-19T18:58:38.208Z,4.20
2023-04-19T19:01:04.622Z,5.72
2023-04-19T19:03:53.999Z,6.72
2023-04-19T19:06:18.249Z,2.45
2023-04-19T19:08:44.777Z,4.97
2023-04-19T19:11:29.244Z,7.50
2023-04-19T19:13:57.349Z,4.90
2023-04-19T19:16:25.364Z,4.88
2023-04-19T19:18:51.780Z,4.70
2023-04-19T19:21:18.475Z,5.00
2023-04-19T19:23:44.698Z,5.78
2023-04-19T19:26:11.976Z,6.07
2023-04-19T19:28:38.270Z,5.63
2023-04-19T19:31:04.569Z,11.80
2023-04-19T19:33:32.360Z,4.93
2023-04-19T19:35:59.150Z,7.60
2023-04-19T19:38:25.592Z,4.82
2023-04-19T19:43:21.159Z,5.82
2023-04-19T19:45:47.390Z,6.65
2023-04-19T19:48:13.648Z,4.15
2023-04-19T19:51:07.481Z,4.43
2023-04-19T19:53:26.151Z,4.78
2023-04-19T19:55:52.801Z,8.73
2023-04-19T19:58:45.887Z,8.38
2023-04-19T20:01:06.299Z,7.38
2023-04-19T20:03:37.522Z,6.22
2023-04-19T20:08:43.570Z,3.30
2023-04-19T20:11:10.519Z,4.70
2023-04-19T20:13:36.799Z,9.55
2023-04-19T20:16:03.373Z,10.50
2023-04-19T20:18:29.884Z,4.35
2023-04-19T20:20:57.731Z,5.68
2023-04-19T20:23:24.042Z,6.00
2023-04-19T20:25:51.885Z,6.03
2023-04-19T20:28:18.407Z,8.25
2023-04-19T20:30:44.634Z,11.20
2023-04-19T20:33:10.963Z,11.48
2023-04-19T20:35:37.234Z,7.53
2023-04-19T20:38:03.581Z,4.95
2023-04-19T20:40:30.532Z,10.65
2023-04-19T20:45:22.973Z,9.35
2023-04-19T20:47:49.608Z,4.47
2023-04-19T20:50:15.881Z,5.68
2023-04-19T20:52:42.084Z,8.48
2023-04-19T20:55:08.616Z,7.90
2023-04-19T20:57:34.851Z,8.98
2023-04-19T21:00:01.144Z,11.63
2023-04-19T21:02:27.745Z,7.55
2023-04-19T21:04:54.062Z,7.93
2023-04-19T21:07:20.352Z,4.80
2023-04-19T21:09:46.581Z,15.88
2023-04-19T21:12:12.818Z,8.02
2023-04-19T21:14:39.080Z,14.45
2023-04-19T21:17:05.383Z,5.80
2023-04-19T21:19:31.646Z,9.02
2023-04-19T21:21:58.399Z,4.85
2023-04-19T21:24:24.624Z,5.07
2023-04-19T21:26:50.918Z,4.30
2023-04-19T21:29:17.365Z,3.72
2023-04-19T21:31:43.744Z,8.93
2023-04-19T21:34:09.965Z,5.38
2023-04-19T21:36:36.189Z,6.38
2023-04-19T21:39:02.458Z,8.25
2023-04-19T21:41:28.697Z,3.28
2023-04-19T21:43:55.020Z,4.15
2023-04-19T21:46:21.293Z,6.07
2023-04-19T21:48:47.535Z,4.68
2023-04-19T21:51:14.083Z,4.50
2023-04-19T21:53:40.477Z,4.70
2023-04-19T21:56:06.807Z,5.78
2023-04-19T21:58:33.046Z,3.63
2023-04-19T22:00:59.305Z,6.65
2023-04-19T22:03:25.791Z,4.35
2023-04-19T22:05:52.147Z,3.97
2023-04-19T22:08:18.425Z,4.32
2023-04-19T22:10:44.783Z,5.05
2023-04-19T22:13:11.035Z,4.03
2023-04-19T22:15:38.284Z,8.05
2023-04-19T22:18:05.086Z,5.80
2023-04-19T22:20:32.097Z,5.72
2023-04-19T22:25:24.470Z,5.53
2023-04-19T22:27:50.891Z,4.90
2023-04-19T22:30:17.113Z,8.45
2023-04-19T22:32:43.379Z,9.32
2023-04-19T22:35:09.697Z,4.57
2023-04-19T22:37:36.060Z,4.10
2023-04-19T22:40:02.317Z,8.13
2023-04-19T22:42:28.540Z,4.10
2023-04-19T22:44:54.773Z,7.88
2023-04-19T22:47:21.116Z,8.63
2023-04-19T22:49:47.957Z,8.32
2023-04-19T22:52:14.432Z,5.00
2023-04-19T22:54:41.485Z,6.75
2023-04-19T22:59:33.890Z,7.03
2023-04-19T23:02:00.365Z,5.57
2023-04-19T23:04:26.921Z,8.50
2023-04-19T23:06:53.551Z,9.15
2023-04-19T23:09:19.774Z,7.30
2023-04-19T23:11:47.101Z,4.10
2023-04-19T23:14:13.868Z,5.20
2023-04-19T23:16:40.413Z,4.15
2023-04-19T23:19:07.478Z,7.43
2023-04-19T23:21:34.279Z,5.75
2023-04-19T23:24:00.541Z,3.92
2023-04-19T23:26:26.832Z,3.70
2023-04-19T23:28:53.093Z,6.10
2023-04-19T23:31:19.362Z,5.10
2023-04-19T23:33:45.786Z,6.28
2023-04-19T23:36:12.065Z,8.13
2023-04-19T23:38:38.309Z,4.10
2023-04-19T23:41:04.599Z,4.07
2023-04-19T23:43:31.019Z,7.82
2023-04-19T23:45:57.607Z,5.65
2023-04-19T23:48:23.821Z,5.10
2023-04-19T23:50:50.244Z,11.55
2023-04-19T23:53:16.467Z,5.35
2023-04-19T23:55:42.716Z,8.27
2023-04-19T23:58:08.932Z,7.85
